Time;durP1;ratioP1;P1;durP2;ratioP2;P2;SDS_P1;SDS_P2;PMS_P1;PMS_P2;Temp;Humidity;BMP_temperature;BMP_pressure;BME280_temperature;BME280_humidity;BME280_pressure;Samples;Min_cycle;Max_cycle;Signal;HPM_P1;HPM_P2
2024/01/01 00:01:39;;;;;;;20.77;11.52;;;7.90;99.90;;;;;;5136821;27;20435;-73
2024/01/01 00:04:05;;;;;;;19.15;11.65;;;7.90;99.90;;;;;;5109160;27;20032;-73
2024/01/01 00:06:31;;;;;;;18.58;11.13;;;7.90;99.90;;;;;;5105835;27;20042;-72
2024/01/01 00:08:56;;;;;;;14.00;10.18;;;7.80;99.90;;;;;;5102418;27;20088;-73
2024/01/01 00:11:22;;;;;;;15.35;11.23;;;7.90;99.90;;;;;;5100932;28;20040;-73
2024/01/01 00:13:48;;;;;;;18.83;11.68;;;7.90;99.90;;;;;;5100221;27;20434;-73
2024/01/01 00:16:16;;;;;;;18.75;12.25;;;7.90;99.90;;;;;;5102369;27;20493;-73
2024/01/01 00:18:42;;;;;;;16.42;12.32;;;7.90;99.90;;;;;;5105491;27;20438;-72
2024/01/01 00:21:08;;;;;;;18.70;12.48;;;8.10;99.90;;;;;;5102493;27;20066;-73
2024/01/01 00:23:34;;;;;;;22.75;13.05;;;8.00;99.90;;;;;;5104116;27;20036;-73
2024/01/01 00:26:00;;;;;;;18.33;12.35;;;8.10;99.90;;;;;;5103923;28;20088;-73
2024/01/01 00:28:26;;;;;;;16.63;11.43;;;8.10;99.90;;;;;;5135927;27;20040;-72
2024/01/01 00:30:51;;;;;;;17.75;11.48;;;8.10;99.90;;;;;;5104969;27;20464;-73
2024/01/01 00:33:17;;;;;;;18.65;11.00;;;8.10;99.90;;;;;;5081854;28;20047;-72
2024/01/01 00:35:44;;;;;;;19.45;11.60;;;8.20;99.90;;;;;;5105828;27;20060;-73
2024/01/01 00:38:10;;;;;;;18.73;11.38;;;8.20;99.90;;;;;;5101466;27;20039;-72
2024/01/01 00:40:37;;;;;;;18.60;10.10;;;8.20;99.90;;;;;;5104145;28;20096;-73
2024/01/01 00:43:03;;;;;;;17.60;9.77;;;8.20;99.90;;;;;;5100539;27;20535;-72
2024/01/01 00:45:28;;;;;;;16.90;10.82;;;8.20;99.90;;;;;;5102709;27;20087;-73
2024/01/01 00:47:54;;;;;;;19.83;10.07;;;8.20;99.90;;;;;;5102361;27;20155;-72
2024/01/01 00:50:20;;;;;;;16.65;9.70;;;8.60;99.90;;;;;;5099601;27;20496;-72
2024/01/01 00:52:46;;;;;;;20.65;10.20;;;8.20;99.90;;;;;;5104149;27;20046;-73
2024/01/01 00:55:11;;;;;;;15.48;10.75;;;8.20;99.90;;;;;;5119748;27;20087;-73
2024/01/01 00:57:37;;;;;;;17.17;12.85;;;8.30;99.90;;;;;;5101232;27;20035;-73
2024/01/01 01:00:05;;;;;;;20.30;13.73;;;8.20;99.90;;;;;;5103100;27;20051;-73
2024/01/01 01:02:30;;;;;;;21.17;15.18;;;8.30;99.90;;;;;;5098187;28;20138;-73
2024/01/01 01:04:56;;;;;;;23.85;15.60;;;8.30;99.90;;;;;;5086238;28;20130;-73
2024/01/01 01:07:22;;;;;;;22.45;16.50;;;8.30;99.90;;;;;;5100609;28;20040;-73
2024/01/01 01:09:48;;;;;;;22.58;15.82;;;8.30;99.90;;;;;;5103371;27;20028;-73
2024/01/01 01:12:16;;;;;;;20.77;15.10;;;8.30;99.90;;;;;;5101307;27;20043;-72
2024/01/01 01:14:42;;;;;;;19.52;13.82;;;8.30;99.90;;;;;;5096969;27;20122;-72
2024/01/01 01:17:08;;;;;;;22.20;13.55;;;8.20;99.90;;;;;;5102998;27;20442;-72
2024/01/01 01:19:34;;;;;;;18.17;13.30;;;8.40;99.90;;;;;;5101327;27;20047;-72
2024/01/01 01:22:00;;;;;;;22.60;13.63;;;8.40;99.90;;;;;;5105550;27;21658;-72
2024/01/01 01:24:26;;;;;;;23.58;14.38;;;10.00;99.90;;;;;;5136573;27;20474;-72
2024/01/01 01:26:51;;;;;;;22.83;14.35;;;8.30;99.90;;;;;;5102244;27;20050;-72
2024/01/01 01:29:17;;;;;;;17.70;14.27;;;8.40;99.90;;;;;;5133527;27;20048;-72
2024/01/01 01:31:46;;;;;;;21.30;14.02;;;8.40;99.90;;;;;;5103981;27;20035;-72
2024/01/01 01:34:12;;;;;;;22.50;15.15;;;8.30;99.90;;;;;;5133077;27;20089;-72
2024/01/01 01:36:38;;;;;;;21.27;15.88;;;8.50;99.90;;;;;;5117205;27;20389;-72
2024/01/01 01:39:04;;;;;;;19.55;14.23;;;8.30;99.90;;;;;;5133563;27;20101;-72
2024/01/01 01:41:30;;;;;;;22.63;15.70;;;8.30;99.90;;;;;;5103850;27;21011;-73
2024/01/01 01:43:56;;;;;;;20.58;15.55;;;8.30;99.90;;;;;;5100338;27;20054;-72
2024/01/01 01:46:22;;;;;;;19.80;14.73;;;8.30;99.90;;;;;;5132897;27;20055;-72
2024/01/01 01:48:48;;;;;;;21.92;14.77;;;8.30;99.90;;;;;;5099701;27;20050;-72
2024/01/01 01:51:14;;;;;;;21.42;16.05;;;8.30;99.90;;;;;;5131883;27;20047;-72
2024/01/01 01:53:40;;;;;;;21.15;15.43;;;8.30;99.90;;;;;;5097786;27;20032;-72
2024/01/01 01:56:07;;;;;;;18.30;15.07;;;8.30;99.90;;;;;;5083774;28;20047;-72
2024/01/01 01:58:33;;;;;;;19.00;14.98;;;8.30;99.90;;;;;;5104800;27;20031;-73
2024/01/01 02:00:59;;;;;;;19.77;14.23;;;8.30;99.90;;;;;;5100283;27;20100;-72
2024/01/01 02:03:25;;;;;;;21.30;16.08;;;8.40;99.90;;;;;;5102996;27;20042;-72
2024/01/01 02:05:50;;;;;;;20.98;15.18;;;8.30;99.90;;;;;;5102659;27;21555;-72
2024/01/01 02:08:17;;;;;;;24.23;16.27;;;8.30;99.90;;;;;;5100811;27;20482;-72
2024/01/01 02:10:43;;;;;;;19.67;14.63;;;8.20;99.90;;;;;;5104397;27;20040;-73
2024/01/01 02:13:26;;;;;;;22.05;16.05;;;8.20;99.90;;;;;;5100200;27;20086;-72
2024/01/01 02:15:52;;;;;;;22.80;15.77;;;8.20;99.90;;;;;;5104172;27;20040;-72
2024/01/01 02:18:17;;;;;;;18.67;14.18;;;8.20;99.90;;;;;;5097349;27;20116;-72
2024/01/01 02:20:43;;;;;;;18.08;12.88;;;8.30;99.90;;;;;;5102562;27;20039;-72
2024/01/01 02:23:08;;;;;;;17.80;12.02;;;8.20;99.90;;;;;;5102371;28;20409;-72
2024/01/01 02:25:34;;;;;;;16.98;11.02;;;8.20;99.90;;;;;;5128455;27;20433;-72
2024/01/01 02:28:00;;;;;;;17.98;11.15;;;8.20;99.90;;;;;;5102713;27;20173;-72
2024/01/01 02:30:26;;;;;;;16.45;10.43;;;8.10;99.90;;;;;;5100903;27;20080;-72
2024/01/01 02:32:51;;;;;;;17.90;10.80;;;8.10;99.90;;;;;;5104521;27;20043;-72
2024/01/01 02:35:17;;;;;;;15.80;10.10;;;8.10;99.90;;;;;;5101572;27;20058;-72
2024/01/01 02:37:42;;;;;;;12.00;8.43;;;8.10;99.90;;;;;;5100619;27;20847;-72
2024/01/01 02:40:09;;;;;;;13.77;8.20;;;8.10;99.90;;;;;;5105327;27;20058;-73
2024/01/01 02:42:35;;;;;;;13.52;8.98;;;8.00;99.90;;;;;;5101442;28;20048;-73
2024/01/01 02:45:01;;;;;;;14.95;8.32;;;8.00;99.90;;;;;;5105413;28;20035;-73
2024/01/01 02:47:26;;;;;;;13.27;7.97;;;7.80;99.90;;;;;;5099431;28;20036;-73
2024/01/01 02:49:52;;;;;;;14.75;9.57;;;7.80;99.90;;;;;;5101717;28;20039;-73
2024/01/01 02:52:18;;;;;;;13.32;7.97;;;7.70;99.90;;;;;;5101780;28;20091;-73
2024/01/01 02:54:44;;;;;;;13.43;8.15;;;7.60;99.90;;;;;;5102897;28;20051;-73
2024/01/01 02:57:09;;;;;;;13.98;7.97;;;7.60;99.90;;;;;;5132297;27;20485;-73
2024/01/01 02:59:35;;;;;;;14.25;8.73;;;7.90;99.90;;;;;;5100121;28;20145;-72
2024/01/01 03:02:01;;;;;;;11.15;7.25;;;7.50;99.90;;;;;;5102859;28;20035;-72
2024/01/01 03:04:31;;;;;;;12.55;7.35;;;7.50;99.90;;;;;;5101678;28;20036;-73
2024/01/01 03:06:57;;;;;;;13.13;7.32;;;7.50;99.90;;;;;;5097762;28;20063;-72
2024/01/01 03:09:23;;;;;;;11.73;6.65;;;7.50;99.90;;;;;;5102280;28;20390;-72
2024/01/01 03:11:49;;;;;;;14.70;7.20;;;7.50;99.90;;;;;;5102411;28;20043;-72
2024/01/01 03:14:14;;;;;;;12.50;7.50;;;7.50;99.90;;;;;;5104640;27;20057;-73
2024/01/01 03:16:41;;;;;;;13.70;5.63;;;8.60;99.90;;;;;;5106994;27;20103;-73
2024/01/01 03:19:06;;;;;;;8.68;4.50;;;7.40;99.90;;;;;;5104282;27;20620;-73
2024/01/01 03:21:32;;;;;;;12.48;5.68;;;7.40;99.90;;;;;;5106565;27;20111;-73
2024/01/01 03:23:58;;;;;;;9.73;4.88;;;7.40;99.90;;;;;;5107164;27;20565;-73
2024/01/01 03:26:23;;;;;;;10.93;4.97;;;7.40;99.90;;;;;;5105745;27;20074;-73
2024/01/01 03:28:49;;;;;;;9.13;4.93;;;7.30;99.90;;;;;;5132565;27;20146;-72
2024/01/01 03:31:15;;;;;;;9.75;4.55;;;7.30;99.90;;;;;;5105546;27;20138;-72
2024/01/01 03:33:40;;;;;;;10.63;3.70;;;7.40;99.90;;;;;;5106808;27;20035;-73
2024/01/01 03:36:06;;;;;;;9.60;4.03;;;7.30;99.90;;;;;;5105799;27;20040;-73
2024/01/01 03:38:32;;;;;;;10.13;3.72;;;7.20;99.90;;;;;;5106224;27;20081;-73
2024/01/01 03:40:58;;;;;;;10.73;3.40;;;7.30;99.90;;;;;;5101624;27;20032;-73
2024/01/01 03:43:24;;;;;;;7.75;3.05;;;8.30;99.90;;;;;;5109744;27;20044;-73
2024/01/01 03:45:49;;;;;;;12.90;3.05;;;7.20;99.90;;;;;;5103148;27;20031;-72
2024/01/01 03:48:15;;;;;;;8.23;2.90;;;7.10;99.90;;;;;;5101344;27;20046;-72
2024/01/01 03:50:41;;;;;;;9.52;3.50;;;7.20;99.90;;;;;;5104175;27;20039;-72
2024/01/01 03:53:06;;;;;;;10.10;2.80;;;7.20;99.90;;;;;;5103308;27;20039;-72
2024/01/01 03:55:32;;;;;;;7.07;2.47;;;7.60;99.90;;;;;;5105685;27;20044;-72
2024/01/01 03:57:58;;;;;;;10.35;2.40;;;7.10;99.90;;;;;;5132896;27;20054;-72
2024/01/01 04:00:23;;;;;;;7.65;2.80;;;7.10;99.90;;;;;;5104179;27;20151;-73
2024/01/01 04:02:49;;;;;;;7.20;1.95;;;7.80;99.90;;;;;;5133710;27;21048;-72
2024/01/01 04:05:15;;;;;;;7.78;1.85;;;7.10;99.90;;;;;;5131838;27;20036;-72
2024/01/01 04:07:41;;;;;;;5.82;1.63;;;7.10;99.90;;;;;;5105341;27;20087;-72
2024/01/01 04:10:08;;;;;;;5.95;1.83;;;7.10;99.90;;;;;;5104154;27;20024;-72
2024/01/01 04:12:34;;;;;;;7.22;2.03;;;7.00;99.90;;;;;;5106564;27;20043;-72
2024/01/01 04:15:00;;;;;;;7.20;1.70;;;7.10;99.90;;;;;;5103176;27;20449;-73
2024/01/01 04:17:26;;;;;;;8.23;1.98;;;7.10;99.90;;;;;;5132399;27;20119;-73
2024/01/01 04:19:53;;;;;;;7.28;2.22;;;7.00;99.90;;;;;;5104859;27;20133;-73
2024/01/01 04:22:19;;;;;;;5.10;1.95;;;7.10;99.90;;;;;;5130802;27;20071;-73
2024/01/01 04:24:45;;;;;;;6.80;2.63;;;7.10;99.90;;;;;;5136816;27;20469;-73
2024/01/01 04:27:11;;;;;;;6.30;1.80;;;7.00;99.90;;;;;;5103372;27;20027;-73
2024/01/01 04:29:37;;;;;;;5.80;1.60;;;7.00;99.90;;;;;;5132030;27;20036;-73
2024/01/01 04:32:03;;;;;;;5.47;2.00;;;7.10;99.90;;;;;;5102997;27;20162;-73
2024/01/01 04:34:28;;;;;;;6.82;1.73;;;7.00;99.90;;;;;;5102014;27;20043;-73
2024/01/01 04:36:54;;;;;;;6.53;1.90;;;7.10;99.90;;;;;;5134093;27;20035;-73
2024/01/01 04:39:20;;;;;;;4.90;1.45;;;7.00;99.90;;;;;;5100791;27;20486;-72
2024/01/01 04:41:46;;;;;;;8.45;1.60;;;7.00;99.90;;;;;;5104808;27;20039;-73
2024/01/01 04:44:12;;;;;;;6.28;1.92;;;7.00;99.90;;;;;;5100224;27;20362;-73
2024/01/01 04:46:37;;;;;;;7.45;1.52;;;7.00;99.90;;;;;;5104320;27;20039;-73
2024/01/01 04:49:04;;;;;;;5.32;1.90;;;7.00;99.90;;;;;;5135979;27;20040;-73
2024/01/01 04:51:29;;;;;;;12.10;1.92;;;7.00;99.90;;;;;;5085396;28;20119;-73
2024/01/01 04:53:55;;;;;;;15.43;2.60;;;7.00;99.90;;;;;;5103868;28;20180;-73
2024/01/01 04:56:23;;;;;;;6.80;1.70;;;6.90;99.90;;;;;;5103470;27;20493;-73
2024/01/01 04:58:49;;;;;;;6.82;1.90;;;7.00;99.90;;;;;;5131018;27;20063;-73
2024/01/01 05:01:15;;;;;;;7.80;1.92;;;7.00;99.90;;;;;;5131574;27;20092;-73
2024/01/01 05:03:40;;;;;;;9.48;1.95;;;6.90;99.90;;;;;;5101809;27;20043;-73
2024/01/01 05:06:06;;;;;;;7.00;1.77;;;6.90;99.90;;;;;;5103135;27;20039;-73
2024/01/01 05:08:32;;;;;;;7.22;1.88;;;6.90;99.90;;;;;;5130444;27;20036;-73
2024/01/01 05:10:58;;;;;;;9.30;1.65;;;7.00;99.90;;;;;;5102259;27;20044;-73
2024/01/01 05:13:23;;;;;;;10.35;2.42;;;6.90;99.90;;;;;;5103968;27;20131;-73
2024/01/01 05:15:49;;;;;;;13.63;2.40;;;7.00;99.90;;;;;;5099655;27;21806;-73
2024/01/01 05:18:15;;;;;;;5.88;1.55;;;7.00;99.90;;;;;;5103368;27;20524;-73
2024/01/01 05:20:41;;;;;;;8.38;2.03;;;7.00;99.90;;;;;;5101283;28;20047;-73
2024/01/01 05:23:07;;;;;;;6.10;1.73;;;7.50;99.90;;;;;;5103493;27;20072;-73
2024/01/01 05:25:33;;;;;;;11.05;2.60;;;7.00;99.90;;;;;;5101355;27;20056;-73
2024/01/01 05:28:02;;;;;;;8.50;2.08;;;7.10;99.90;;;;;;5103626;27;20031;-73
2024/01/01 05:30:31;;;;;;;12.10;2.25;;;7.00;99.90;;;;;;5105592;27;20099;-73
2024/01/01 05:32:56;;;;;;;13.18;2.30;;;7.10;99.90;;;;;;5120171;27;20050;-72
2024/01/01 05:35:22;;;;;;;7.20;1.85;;;7.00;99.90;;;;;;5106902;27;20481;-73
2024/01/01 05:37:47;;;;;;;9.77;2.05;;;7.30;99.90;;;;;;5133751;27;20043;-72
2024/01/01 05:40:13;;;;;;;11.27;1.65;;;7.10;99.90;;;;;;5133790;27;20355;-73
2024/01/01 05:42:39;;;;;;;9.43;2.03;;;7.20;99.90;;;;;;5099649;27;20072;-73
2024/01/01 05:45:05;;;;;;;9.20;1.80;;;7.10;99.90;;;;;;5099787;28;20051;-73
2024/01/01 05:47:31;;;;;;;6.75;1.60;;;7.20;99.90;;;;;;5135550;27;20078;-73
2024/01/01 05:49:57;;;;;;;11.73;2.45;;;7.20;99.90;;;;;;5096067;27;20148;-73
2024/01/01 05:52:23;;;;;;;10.30;2.63;;;7.20;99.90;;;;;;5105952;27;20047;-73
2024/01/01 05:54:49;;;;;;;8.32;2.20;;;7.30;99.90;;;;;;5099934;27;20493;-73
2024/01/01 05:57:14;;;;;;;7.95;2.00;;;7.30;99.90;;;;;;5101739;27;20103;-72
2024/01/01 05:59:40;;;;;;;9.45;2.03;;;7.20;99.90;;;;;;5104631;27;20051;-72
2024/01/01 06:02:07;;;;;;;11.82;2.22;;;7.40;99.90;;;;;;5102131;27;20042;-72
2024/01/01 06:04:33;;;;;;;11.18;2.58;;;7.20;99.90;;;;;;5133897;27;20485;-73
2024/01/01 06:06:59;;;;;;;11.18;2.63;;;7.30;99.90;;;;;;5099330;27;20200;-72
2024/01/01 06:09:24;;;;;;;13.80;2.78;;;7.40;99.90;;;;;;5135603;27;20642;-73
2024/01/01 06:11:50;;;;;;;8.77;1.80;;;7.20;99.90;;;;;;5103187;27;20060;-73
2024/01/01 06:14:15;;;;;;;8.48;2.40;;;7.20;99.90;;;;;;5132122;27;20424;-72
2024/01/01 06:16:43;;;;;;;14.30;1.98;;;7.30;99.90;;;;;;5102861;27;20039;-72
2024/01/01 06:19:12;;;;;;;10.80;2.35;;;7.20;99.90;;;;;;5101870;28;20054;-72
2024/01/01 06:21:38;;;;;;;10.00;2.63;;;7.20;99.90;;;;;;5102753;27;20712;-72
2024/01/01 06:24:05;;;;;;;8.55;1.50;;;7.20;99.90;;;;;;5101407;27;20040;-72
2024/01/01 06:26:31;;;;;;;8.18;1.48;;;7.20;99.90;;;;;;5101732;27;20076;-72
2024/01/01 06:28:56;;;;;;;9.77;1.88;;;7.20;99.90;;;;;;5102116;27;20039;-72
2024/01/01 06:31:22;;;;;;;10.05;2.35;;;7.20;99.90;;;;;;5100123;27;20078;-72
2024/01/01 06:33:48;;;;;;;10.48;2.00;;;7.60;99.90;;;;;;5104614;27;20059;-73
2024/01/01 06:36:13;;;;;;;11.30;1.95;;;7.20;99.90;;;;;;5099544;27;20097;-72
2024/01/01 06:38:39;;;;;;;8.02;1.85;;;7.30;99.90;;;;;;5102630;27;20095;-73
2024/01/01 06:41:05;;;;;;;8.98;1.75;;;7.40;99.90;;;;;;5099722;27;20028;-73
2024/01/01 06:43:32;;;;;;;6.32;1.45;;;7.30;99.90;;;;;;5100469;28;20449;-73
2024/01/01 06:45:58;;;;;;;9.38;1.80;;;7.20;99.90;;;;;;5084162;28;20044;-72
2024/01/01 06:48:23;;;;;;;7.22;1.90;;;7.30;99.90;;;;;;5101664;28;20366;-72
2024/01/01 06:50:49;;;;;;;10.57;2.33;;;7.30;99.90;;;;;;5101286;28;20105;-72
2024/01/01 06:53:15;;;;;;;7.93;1.85;;;7.30;99.90;;;;;;5113739;27;20035;-72
2024/01/01 06:55:41;;;;;;;8.23;2.42;;;7.40;99.90;;;;;;5101608;28;20362;-72
2024/01/01 06:58:06;;;;;;;9.05;1.73;;;7.70;99.90;;;;;;5104408;28;20478;-72
2024/01/01 07:00:32;;;;;;;7.60;2.42;;;7.30;99.90;;;;;;5131372;27;20070;-72
2024/01/01 07:02:57;;;;;;;8.65;1.55;;;7.30;99.90;;;;;;5103490;28;21371;-73
2024/01/01 07:05:24;;;;;;;7.32;1.88;;;7.30;99.90;;;;;;5105921;28;20101;-72
2024/01/01 07:07:50;;;;;;;7.20;1.80;;;7.30;99.90;;;;;;5103727;28;20054;-72
2024/01/01 07:10:16;;;;;;;7.18;2.17;;;7.30;99.90;;;;;;5108713;28;20054;-72
2024/01/01 07:12:42;;;;;;;9.45;2.35;;;7.20;99.90;;;;;;5104699;28;20424;-72
2024/01/01 07:15:08;;;;;;;6.15;1.63;;;7.30;99.90;;;;;;5134757;27;20488;-72
2024/01/01 07:17:33;;;;;;;4.97;1.65;;;7.30;99.90;;;;;;5104375;28;20101;-72
2024/01/01 07:20:00;;;;;;;11.38;2.10;;;7.30;99.90;;;;;;5103147;28;20075;-72
2024/01/01 07:22:26;;;;;;;7.85;1.73;;;7.30;99.90;;;;;;5103226;28;20134;-73
2024/01/01 07:24:52;;;;;;;8.00;1.90;;;7.20;99.90;;;;;;5104992;28;20084;-72
2024/01/01 07:27:17;;;;;;;6.93;1.38;;;7.40;99.90;;;;;;5105719;28;20428;-72
2024/01/01 07:29:43;;;;;;;5.72;1.30;;;7.30;99.90;;;;;;5106036;28;20044;-72
2024/01/01 07:32:08;;;;;;;8.52;1.08;;;7.30;99.90;;;;;;5103637;28;20035;-73
2024/01/01 07:34:35;;;;;;;6.18;1.20;;;7.20;99.90;;;;;;5103604;28;20390;-72
2024/01/01 07:37:01;;;;;;;8.73;1.20;;;7.30;99.90;;;;;;5105612;28;20107;-73
2024/01/01 07:39:29;;;;;;;5.45;1.02;;;7.30;99.90;;;;;;5105735;27;20122;-73
2024/01/01 07:41:55;;;;;;;9.88;2.30;;;7.30;99.90;;;;;;5105823;27;20122;-73
2024/01/01 07:44:21;;;;;;;6.63;1.45;;;7.30;99.90;;;;;;5102917;28;20044;-73
2024/01/01 07:46:48;;;;;;;8.80;2.58;;;7.30;99.90;;;;;;5102996;28;20139;-73
2024/01/01 07:49:14;;;;;;;8.82;2.75;;;7.30;99.90;;;;;;5130237;27;20050;-72
2024/01/01 07:51:40;;;;;;;8.77;2.40;;;7.30;99.90;;;;;;5103244;28;20055;-73
2024/01/01 07:54:06;;;;;;;8.77;2.30;;;7.30;99.90;;;;;;5102955;28;20043;-73
2024/01/01 07:56:32;;;;;;;13.20;3.20;;;7.30;99.90;;;;;;5133565;27;20035;-73
2024/01/01 07:58:58;;;;;;;11.57;2.85;;;7.40;99.90;;;;;;5107398;27;20103;-72
2024/01/01 08:01:24;;;;;;;11.60;2.47;;;7.40;99.90;;;;;;5106940;27;20038;-73
2024/01/01 08:03:50;;;;;;;12.02;2.60;;;7.30;99.90;;;;;;5108038;27;20054;-73
2024/01/01 08:06:17;;;;;;;10.85;2.30;;;7.40;99.90;;;;;;5107123;27;20386;-73
2024/01/01 08:08:43;;;;;;;13.20;2.47;;;7.40;99.90;;;;;;5107081;27;20024;-73
2024/01/01 08:11:09;;;;;;;9.15;2.50;;;7.40;99.90;;;;;;5105517;27;20485;-73
2024/01/01 08:13:36;;;;;;;9.98;2.88;;;7.40;99.90;;;;;;5105327;27;20048;-73
2024/01/01 08:16:02;;;;;;;7.95;2.55;;;7.40;99.90;;;;;;5134884;27;20047;-73
2024/01/01 08:18:28;;;;;;;9.43;2.25;;;7.40;99.90;;;;;;5105587;27;20184;-73
2024/01/01 08:20:54;;;;;;;12.38;2.90;;;7.40;99.90;;;;;;5104592;27;20123;-73
2024/01/01 08:23:19;;;;;;;8.88;2.28;;;7.40;99.90;;;;;;5106553;27;20481;-73
2024/01/01 08:25:45;;;;;;;9.52;2.60;;;7.60;99.90;;;;;;5104288;28;20035;-72
2024/01/01 08:28:11;;;;;;;8.95;2.10;;;7.40;99.90;;;;;;5104429;27;20027;-73
2024/01/01 08:30:38;;;;;;;10.02;2.10;;;7.40;99.90;;;;;;5105042;27;20035;-73
2024/01/01 08:33:04;;;;;;;8.85;2.00;;;7.40;99.90;;;;;;5136921;27;20051;-73
2024/01/01 08:35:31;;;;;;;10.45;1.90;;;7.40;99.90;;;;;;5108036;27;20043;-73
2024/01/01 08:37:57;;;;;;;10.73;2.00;;;7.40;99.90;;;;;;5109681;27;20036;-73
2024/01/01 08:40:23;;;;;;;10.82;2.67;;;7.40;99.90;;;;;;5105199;27;20500;-73
2024/01/01 08:42:50;;;;;;;13.80;2.45;;;7.40;99.90;;;;;;5104682;27;20051;-73
2024/01/01 08:45:19;;;;;;;10.40;2.55;;;7.40;99.90;;;;;;5108486;27;20042;-72
2024/01/01 08:47:47;;;;;;;13.82;2.42;;;7.50;99.90;;;;;;5106676;27;20479;-75
2024/01/01 08:50:14;;;;;;;12.20;3.13;;;7.40;99.90;;;;;;5092717;28;20035;-74
2024/01/01 08:52:42;;;;;;;11.60;2.42;;;7.40;99.90;;;;;;5108177;27;20047;-67
2024/01/01 08:55:08;;;;;;;10.30;2.20;;;7.50;99.90;;;;;;5110160;27;20051;-67
2024/01/01 08:57:34;;;;;;;8.95;2.42;;;7.50;99.90;;;;;;5138071;27;20040;-69
2024/01/01 08:59:59;;;;;;;11.13;2.22;;;7.50;99.90;;;;;;5136750;27;20533;-69
2024/01/01 09:02:25;;;;;;;6.45;1.67;;;7.50;99.90;;;;;;5136875;27;20052;-69
2024/01/01 09:04:51;;;;;;;6.35;1.67;;;7.60;99.90;;;;;;5107155;27;20040;-69
2024/01/01 09:07:16;;;;;;;10.95;2.05;;;7.60;99.90;;;;;;5104905;27;20478;-69
2024/01/01 09:09:42;;;;;;;5.25;1.25;;;7.60;99.90;;;;;;5106311;27;20047;-69
2024/01/01 09:12:08;;;;;;;7.55;1.73;;;7.60;99.90;;;;;;5105201;27;20122;-69
2024/01/01 09:14:35;;;;;;;7.75;1.90;;;7.60;99.90;;;;;;5090548;28;20036;-69
2024/01/01 09:17:00;;;;;;;8.98;2.15;;;7.60;99.90;;;;;;5137970;27;20114;-69
2024/01/01 09:19:26;;;;;;;8.43;1.75;;;7.70;99.90;;;;;;5103699;27;20177;-69
2024/01/01 09:21:52;;;;;;;11.15;1.75;;;7.70;99.90;;;;;;5104559;27;20043;-69
2024/01/01 09:24:18;;;;;;;7.80;1.58;;;7.80;99.90;;;;;;5103002;28;20075;-69
2024/01/01 09:26:44;;;;;;;10.25;1.98;;;7.80;99.90;;;;;;5137161;27;20147;-69
2024/01/01 09:29:09;;;;;;;12.15;2.13;;;7.80;99.90;;;;;;5104990;27;20032;-70
2024/01/01 09:31:35;;;;;;;10.65;2.22;;;7.90;99.90;;;;;;5102531;28;20535;-69
2024/01/01 09:34:03;;;;;;;8.00;2.17;;;7.80;99.90;;;;;;5105744;27;20167;-69
2024/01/01 09:36:29;;;;;;;12.90;2.10;;;7.80;99.90;;;;;;5105212;27;20089;-70
2024/01/01 09:38:55;;;;;;;9.63;1.77;;;7.80;99.90;;;;;;5103711;27;20043;-70
2024/01/01 09:41:24;;;;;;;6.50;1.58;;;7.70;99.90;;;;;;5102769;28;20481;-70
2024/01/01 09:43:50;;;;;;;8.63;1.80;;;7.80;99.90;;;;;;5104369;27;20035;-70
2024/01/01 09:46:17;;;;;;;9.48;1.98;;;7.80;99.90;;;;;;5103312;28;20144;-68
2024/01/01 09:48:46;;;;;;;8.25;1.67;;;7.80;99.90;;;;;;5102297;28;20050;-68
2024/01/01 09:51:13;;;;;;;10.80;2.63;;;7.80;99.90;;;;;;5115233;27;20047;-68
2024/01/01 09:53:39;;;;;;;6.57;1.80;;;7.80;99.90;;;;;;5105882;27;21007;-68
2024/01/01 09:56:05;;;;;;;12.23;2.03;;;7.70;99.90;;;;;;5103509;28;20581;-68
2024/01/01 09:58:44;;;;;;;13.27;2.33;;;7.70;99.90;;;;;;5105586;28;20040;-68
2024/01/01 10:01:16;;;;;;;9.77;1.98;;;7.80;99.90;;;;;;5103515;27;20054;-68
2024/01/01 10:03:42;;;;;;;9.85;1.25;;;7.80;99.90;;;;;;5102785;27;20047;-68
2024/01/01 10:06:09;;;;;;;9.60;2.00;;;7.70;99.90;;;;;;5103846;27;20039;-68
2024/01/01 10:08:36;;;;;;;6.22;1.35;;;7.70;99.90;;;;;;5100599;28;20036;-68
2024/01/01 10:11:28;;;;;;;9.10;1.80;;;7.70;99.90;;;;;;5103238;27;20819;-68
2024/01/01 10:14:02;;;;;;;7.57;1.73;;;7.80;99.90;;;;;;5102545;28;20104;-68
2024/01/01 10:16:28;;;;;;;8.93;1.77;;;7.80;99.90;;;;;;5104188;28;20470;-68
2024/01/01 10:18:58;;;;;;;9.43;1.73;;;7.80;99.90;;;;;;5088896;28;20115;-68
2024/01/01 10:21:30;;;;;;;9.88;2.70;;;7.80;99.90;;;;;;5102254;27;20047;-68
2024/01/01 10:23:58;;;;;;;16.00;1.45;;;7.90;99.90;;;;;;5102589;27;20377;-68
2024/01/01 10:26:24;;;;;;;9.10;1.67;;;7.90;99.90;;;;;;5103491;27;20039;-68
2024/01/01 10:28:50;;;;;;;10.75;2.15;;;7.90;99.90;;;;;;5101765;28;20039;-68
2024/01/01 10:31:16;;;;;;;13.95;1.73;;;7.90;99.90;;;;;;5101571;28;20032;-68
2024/01/01 10:33:42;;;;;;;10.75;1.50;;;7.90;99.90;;;;;;5102672;27;20097;-68
2024/01/01 10:36:08;;;;;;;7.57;1.13;;;8.00;99.90;;;;;;5100382;28;20164;-68
2024/01/01 10:38:36;;;;;;;9.27;1.83;;;8.10;99.90;;;;;;5100965;28;20511;-68
2024/01/01 10:41:03;;;;;;;7.88;1.20;;;8.20;99.90;;;;;;5102036;28;20112;-68
2024/01/01 10:43:29;;;;;;;12.05;1.42;;;8.20;99.90;;;;;;5130632;27;20047;-68
2024/01/01 10:46:05;;;;;;;5.38;1.10;;;8.30;99.90;;;;;;5099979;28;20413;-68
2024/01/01 10:48:32;;;;;;;6.25;0.93;;;8.30;99.90;;;;;;5104285;28;20051;-68
2024/01/01 10:51:09;;;;;;;9.23;1.40;;;8.30;99.90;;;;;;5104424;28;20059;-69
2024/01/01 10:53:56;;;;;;;6.68;0.80;;;8.30;99.90;;;;;;5133289;27;20051;-68
2024/01/01 10:56:31;;;;;;;7.50;0.80;;;8.20;99.90;;;;;;5133629;27;20051;-68
2024/01/01 10:59:16;;;;;;;7.28;1.45;;;8.20;99.90;;;;;;5129845;27;20040;-68
2024/01/01 11:01:43;;;;;;;6.30;1.00;;;8.20;99.90;;;;;;5102927;28;20035;-68
2024/01/01 11:04:11;;;;;;;9.00;1.77;;;8.10;99.90;;;;;;5132686;27;20043;-68
2024/01/01 11:06:42;;;;;;;8.13;1.20;;;8.10;99.90;;;;;;5100927;28;20038;-68
2024/01/01 11:09:20;;;;;;;11.32;1.17;;;8.20;99.90;;;;;;5100496;28;20040;-68
2024/01/01 11:11:53;;;;;;;12.43;1.25;;;8.30;99.90;;;;;;5102762;28;20038;-68
2024/01/01 11:14:26;;;;;;;8.32;1.30;;;8.30;99.90;;;;;;5100368;28;20051;-68
2024/01/01 11:16:53;;;;;;;8.00;1.67;;;8.30;99.90;;;;;;5104233;28;20039;-68
2024/01/01 11:19:41;;;;;;;7.25;0.95;;;8.30;99.90;;;;;;5101448;28;20086;-68
2024/01/01 11:22:30;;;;;;;9.85;1.30;;;8.40;99.90;;;;;;5103751;28;20465;-68
2024/01/01 11:24:59;;;;;;;8.90;1.35;;;8.40;99.90;;;;;;5101086;28;20525;-68
2024/01/01 11:27:35;;;;;;;9.18;0.93;;;8.40;99.90;;;;;;5102025;28;20040;-68
2024/01/01 11:30:08;;;;;;;13.75;2.22;;;8.80;99.90;;;;;;5105018;28;20560;-68
2024/01/01 11:32:37;;;;;;;8.98;1.33;;;8.50;99.90;;;;;;5132621;27;20524;-68
2024/01/01 11:35:07;;;;;;;8.20;1.20;;;8.60;99.90;;;;;;5137360;27;20621;-68
2024/01/01 11:37:34;;;;;;;7.97;1.50;;;8.70;99.90;;;;;;5106819;27;20125;-68
2024/01/01 11:40:02;;;;;;;9.30;2.03;;;8.60;99.90;;;;;;5108254;27;20038;-68
2024/01/01 11:42:28;;;;;;;10.30;1.35;;;8.70;99.90;;;;;;5109149;27;20066;-68
2024/01/01 11:45:09;;;;;;;9.95;1.48;;;8.70;99.90;;;;;;5133625;27;20063;-68
2024/01/01 11:47:36;;;;;;;9.25;1.70;;;8.80;99.90;;;;;;5104931;28;20093;-68
2024/01/01 11:50:07;;;;;;;9.10;1.80;;;8.70;99.90;;;;;;5100991;27;20043;-68
2024/01/01 11:52:33;;;;;;;7.75;1.38;;;8.70;99.90;;;;;;5103368;27;20051;-68
2024/01/01 11:54:59;;;;;;;7.55;1.17;;;8.70;99.90;;;;;;5106666;27;20441;-68
2024/01/01 11:57:25;;;;;;;9.50;1.73;;;8.70;99.90;;;;;;5104139;27;20083;-68
2024/01/01 11:59:51;;;;;;;7.55;1.35;;;8.70;99.90;;;;;;5105762;27;20038;-68
2024/01/01 12:02:17;;;;;;;12.82;1.55;;;8.70;99.90;;;;;;5136548;27;20055;-68
2024/01/01 12:04:49;;;;;;;6.88;1.20;;;8.70;99.90;;;;;;5104222;27;20047;-68
2024/01/01 12:07:41;;;;;;;9.77;2.58;;;8.70;99.90;;;;;;5102285;27;20039;-68
2024/01/01 12:10:10;;;;;;;11.18;2.55;;;8.70;99.90;;;;;;5102768;27;20079;-68
2024/01/01 12:12:42;;;;;;;10.70;2.65;;;8.70;99.90;;;;;;5133362;27;20044;-68
2024/01/01 12:15:09;;;;;;;10.88;1.88;;;8.70;99.90;;;;;;5135281;27;20058;-68
2024/01/01 12:17:45;;;;;;;7.82;1.20;;;8.70;99.90;;;;;;5105709;27;20176;-68
2024/01/01 12:20:14;;;;;;;9.40;1.30;;;8.60;99.90;;;;;;5104149;27;20043;-69
2024/01/01 12:22:40;;;;;;;10.07;1.70;;;8.70;99.90;;;;;;5104105;27;20056;-68
2024/01/01 12:25:06;;;;;;;9.85;0.82;;;8.60;99.90;;;;;;5105147;27;20046;-68
2024/01/01 12:27:32;;;;;;;4.35;0.82;;;8.60;99.90;;;;;;5102977;28;20085;-69
2024/01/01 12:29:59;;;;;;;6.43;0.98;;;8.40;99.90;;;;;;5105059;27;20040;-68
2024/01/01 12:32:25;;;;;;;8.15;1.20;;;8.40;99.90;;;;;;5105593;27;20553;-68
2024/01/01 12:34:51;;;;;;;12.32;1.40;;;8.20;99.90;;;;;;5090089;28;20040;-68
2024/01/01 12:37:17;;;;;;;7.80;1.38;;;8.30;99.90;;;;;;5105527;27;20085;-68
2024/01/01 12:39:43;;;;;;;9.80;1.67;;;8.20;99.90;;;;;;5105811;27;20085;-68
2024/01/01 12:42:09;;;;;;;9.70;1.85;;;8.30;99.90;;;;;;5107124;27;20070;-68
2024/01/01 12:44:36;;;;;;;9.82;1.25;;;8.30;99.90;;;;;;5108360;28;20054;-68
2024/01/01 12:47:02;;;;;;;10.82;1.85;;;9.10;99.90;;;;;;5103450;27;20051;-68
2024/01/01 12:49:30;;;;;;;8.90;1.40;;;8.30;99.90;;;;;;5103378;27;20090;-68